Rainier, WA

3:01 PM PST on February 12, 2016 (GMT -0800)
Mill Pond Estates | | Change Station
CLOSE
Current Station
Personal Weather Station
Location: Yelm, WA
Elevation: 345 ft
Nearby Weather Stations

Elev 345 ft 46.94 °N, 122.61 °W | Updated 2 seconds ago

Mostly Cloudy
Mostly Cloudy
53.1 °F
Feels Like 53.1 °F
N
1.0
Wind Variable Wind from South
Gusts 3.0 mph

Today
High -- | Low -- °F
--% Chance of Precip.
Yesterday
High -- | Low -- °F
Precip. -- in
Pressure 30.14 in
Visibility 10.0 miles
Clouds Few 2400 ft
Scattered Clouds 4000 ft
Scattered Clouds 6500 ft
Dew Point 42 °F
Humidity 67%
Rainfall 0.32 in
Snow Depth Not available.
7:20 AM 5:30 PM
Waxing Crescent, 24% visible
METAR KOLM 122254Z 24006KT 10SM FEW024 SCT040 SCT065 14/07 A3014 RMK AO2 RAB19E47 SLP206 P0000 T01390067
Pressure 30.14 in
Visibility 10.0 miles
Clouds Few 2400 ft
Scattered Clouds 4000 ft
Scattered Clouds 6500 ft
Dew Point 42 °F
Humidity 67%
Rainfall 0.32 in
Snow Depth Not available.
7:20 AM 5:30 PM
Waxing Crescent, 24% visible
METAR KOLM 122254Z 24006KT 10SM FEW024 SCT040 SCT065 14/07 A3014 RMK AO2 RAB19E47 SLP206 P0000 T01390067

10-Day Weather Forecast

Almanac

Astronomy

Feb. 12, 2016 Rise Set
Actual Time
Civil Twilight
Nautical Twilight
Astronomical Twilight
Moon
Length of Visible Light
Length of Day
Tomorrow will be .
, % of the Moon is Illuminated

Today's Extremes

State Highs State Lows

Community

WunderPhotos

Upload Photos

1,892,431 photos uploaded!

WunderBlog® & News

Nearby

Air Quality

  Air Quality AQ Index Pollutant
Not available.

Snow Depth

Station Depth Elevation

Earthquake Activity

City Distance Mag. Time & Date
Minimum magnitude displayed is 2.5.

Coastal Water Temperatures

Place Temperature

Stations

Nearby Weather Stations

Station Location Temp. Windchill Dew Point Humidity Wind Precip. Elev Updated Type
                   

Watches & Warnings

There are currently no watches in effect.